KACK/ACK METAR and TAF weather

Enter ICAO airport designator
Station Type Date Time Source
KACK METAR 2022/06/27 16:53 UTC NOAA

KACK 271653Z 19016KT 10SM SCT120 23/19 A3000 RMK AO2 SLP159 T02330194


Station Type Date Time Source
KACK Decoded METAR 2022/06/27 16:53 UTC NOAA

NANTUCKET MEMORIAL AIRPORT, MA, United States (KACK) 41-15N 70-04W 16M
Jun 27, 2022 - 12:53 PM EDT / 2022.06.27 1653 UTC
Wind: from the S (190 degrees) at 18 MPH (16 KT):0
Visibility: 10 mile(s):0
Sky conditions: partly cloudy
Temperature: 73.9 F (23.3 C)
Dew Point: 66.9 F (19.4 C)
Relative Humidity: 78%
Pressure (altimeter): 30 in. Hg (1015 hPa)
ob: KACK 271653Z 19016KT 10SM SCT120 23/19 A3000 RMK AO2 SLP159 T02330194
cycle: 17

Station Type Date Time Source
KACK TAF 2022/06/27 15:54 UTC NOAA

TAF
AMD KACK 271451Z 2715/2812 20015G26KT P6SM BKN080
FM272000 21016G26KT P6SM OVC028
FM272300 21014G25KT P6SM OVC013
FM280200 21015G24KT 5SM +SHRA BR OVC005
FM280500 25012KT 3SM SHRA BR OVC004
FM280800 31008KT P6SM VCSH OVC008

Example: see airport list